Time;durP1;ratioP1;P1;durP2;ratioP2;P2;SDS_P1;SDS_P2;PMS_P1;PMS_P2;Temp;Humidity;BMP_temperature;BMP_pressure;BME280_temperature;BME280_humidity;BME280_pressure;Samples;Min_cycle;Max_cycle;Signal;HPM_P1;HPM_P2
2021/04/20 00:02:14;;;;;;;22.83;18.15;;;;;;;7.77;83.70;100744.75;5002544;28;20509;-76
2021/04/20 00:04:39;;;;;;;26.52;20.27;;;;;;;7.79;83.87;100743.88;5001752;28;20549;-76
2021/04/20 00:07:05;;;;;;;27.35;20.08;;;;;;;7.82;84.29;100743.91;4999469;28;20030;-76
2021/04/20 00:09:30;;;;;;;28.13;19.83;;;;;;;7.87;83.63;100739.56;5017885;28;20513;-75
2021/04/20 00:11:56;;;;;;;28.83;20.63;;;;;;;7.95;83.96;100744.88;5001468;28;20486;-75
2021/04/20 00:14:21;;;;;;;25.63;18.80;;;;;;;7.98;83.41;100744.03;4999273;28;20031;-75
2021/04/20 00:16:46;;;;;;;26.70;20.77;;;;;;;7.94;82.41;100736.97;5002288;28;20040;-75
2021/04/20 00:19:12;;;;;;;24.75;18.33;;;;;;;7.90;82.42;100730.81;5002325;28;20628;-75
2021/04/20 00:21:37;;;;;;;27.55;20.23;;;;;;;7.84;82.56;100726.41;4999967;28;20018;-75
2021/04/20 00:24:03;;;;;;;29.90;21.75;;;;;;;7.80;82.78;100721.97;5001671;28;20429;-75
2021/04/20 00:26:29;;;;;;;27.83;20.60;;;;;;;7.76;83.21;100728.09;5002754;28;20072;-75
2021/04/20 00:28:54;;;;;;;25.60;19.25;;;;;;;7.71;83.82;100718.44;5000528;28;20479;-75
2021/04/20 00:31:19;;;;;;;32.42;23.45;;;;;;;7.65;83.76;100725.38;5001047;28;20088;-75
2021/04/20 00:33:45;;;;;;;26.73;20.70;;;;;;;7.60;84.01;100715.72;5017457;28;20038;-75
2021/04/20 00:36:11;;;;;;;26.92;21.08;;;;;;;7.56;84.69;100713.91;5000987;28;20053;-75
2021/04/20 00:38:37;;;;;;;26.05;20.58;;;;;;;7.53;84.60;100714.75;5015448;28;20038;-75
2021/04/20 00:41:03;;;;;;;25.73;19.48;;;;;;;7.49;85.18;100723.47;5000146;28;20034;-75
2021/04/20 00:43:41;;;;;;;24.45;18.77;;;;;;;7.49;85.12;100730.47;5000790;28;20038;-75
2021/04/20 00:46:11;;;;;;;20.40;16.58;;;;;;;7.45;84.49;100717.31;5016803;28;20064;-75
2021/04/20 00:48:37;;;;;;;20.27;16.38;;;;;;;7.34;83.15;100725.97;5001308;28;20080;-75
2021/04/20 00:51:03;;;;;;;23.25;17.90;;;;;;;7.24;84.23;100717.97;5000691;28;20065;-75
2021/04/20 00:53:29;;;;;;;22.42;17.02;;;;;;;7.18;85.29;100711.78;5005724;28;20112;-75
2021/04/20 00:55:54;;;;;;;30.20;22.75;;;;;;;7.14;85.85;100702.13;5000016;28;20042;-75
2021/04/20 00:58:20;;;;;;;28.10;20.60;;;;;;;7.03;86.00;100702.88;5001079;28;20074;-75
2021/04/20 01:00:48;;;;;;;26.30;20.20;;;;;;;7.03;86.37;100699.38;5001052;28;20409;-75
2021/04/20 01:03:13;;;;;;;25.80;19.73;;;;;;;7.00;86.71;100691.47;5000681;28;20041;-75
2021/04/20 01:05:39;;;;;;;25.38;19.13;;;;;;;7.02;86.81;100692.34;5018453;28;20034;-74
2021/04/20 01:08:12;;;;;;;24.60;18.70;;;;;;;7.00;87.30;100687.09;5008135;28;20065;-75
2021/04/20 01:10:41;;;;;;;24.98;19.25;;;;;;;6.98;87.20;100687.94;5005999;28;20057;-75
2021/04/20 01:13:09;;;;;;;24.88;17.88;;;;;;;6.98;86.98;100694.06;5002787;28;20031;-75
2021/04/20 01:15:34;;;;;;;24.05;19.40;;;;;;;6.98;87.63;100690.56;5002467;28;20080;-75
2021/04/20 01:18:12;;;;;;;24.15;18.90;;;;;;;6.93;87.03;100695.75;5005774;28;20081;-75
2021/04/20 01:20:41;;;;;;;23.90;17.92;;;;;;;6.90;87.76;100700.09;5005614;28;20055;-75
2021/04/20 01:23:10;;;;;;;25.73;20.65;;;;;;;6.90;87.87;100705.34;5004744;28;20081;-75
2021/04/20 01:25:37;;;;;;;26.73;20.45;;;;;;;6.86;87.32;100703.53;5003423;28;20433;-75
2021/04/20 01:28:02;;;;;;;27.35;20.17;;;;;;;6.82;86.75;100707.00;5004459;28;20076;-75
2021/04/20 01:30:28;;;;;;;23.30;18.02;;;;;;;6.76;86.14;100699.97;5005536;28;20033;-75
2021/04/20 01:32:53;;;;;;;27.27;20.98;;;;;;;6.60;85.73;100693.59;5003337;28;20034;-75
2021/04/20 01:35:19;;;;;;;26.15;19.48;;;;;;;6.44;85.86;100700.41;5018872;28;20137;-76
2021/04/20 01:37:44;;;;;;;22.40;18.00;;;;;;;6.37;85.98;100695.97;5020715;28;20049;-75
2021/04/20 01:40:11;;;;;;;23.45;18.38;;;;;;;6.28;85.57;100698.44;5004038;28;20034;-75
2021/04/20 01:42:37;;;;;;;26.55;19.67;;;;;;;6.15;85.94;100703.50;5002576;28;20073;-75
2021/04/20 01:45:09;;;;;;;24.27;18.73;;;;;;;6.08;86.06;100703.41;5003931;28;20072;-76
2021/04/20 01:47:34;;;;;;;20.85;16.33;;;;;;;6.04;85.64;100699.84;5005316;28;20030;-75
2021/04/20 01:50:01;;;;;;;20.95;16.48;;;;;;;5.98;85.30;100698.88;5003173;28;20490;-75
2021/04/20 01:52:26;;;;;;;22.80;17.85;;;;;;;5.87;85.98;100696.06;5018310;28;20410;-75
2021/04/20 01:54:52;;;;;;;23.08;18.17;;;;;;;5.85;86.21;100703.00;5005099;28;20030;-75
2021/04/20 01:57:19;;;;;;;17.95;14.20;;;;;;;5.81;85.53;100704.69;5002640;28;20530;-75
2021/04/20 01:59:44;;;;;;;154.38;17.45;;;;;;;5.70;84.91;100696.66;5002692;28;20030;-76
2021/04/20 02:02:09;;;;;;;238.82;23.50;;;;;;;5.63;85.08;100705.28;5003114;28;20053;-76
2021/04/20 02:04:35;;;;;;;17.65;12.93;;;;;;;5.60;85.41;100713.06;5004276;28;20494;-75
2021/04/20 02:07:01;;;;;;;20.65;15.55;;;;;;;5.62;85.53;100715.72;5002636;28;20391;-76
2021/04/20 02:09:27;;;;;;;23.35;17.27;;;;;;;5.62;84.99;100716.59;5019163;28;20038;-76
2021/04/20 02:11:52;;;;;;;21.20;15.73;;;;;;;5.52;85.43;100709.44;5003263;28;20037;-76
2021/04/20 02:14:17;;;;;;;23.90;16.10;;;;;;;5.41;85.45;100705.78;5002573;28;20038;-75
2021/04/20 02:16:43;;;;;;;15.18;12.77;;;;;;;5.38;85.52;100705.72;5018387;28;20121;-75
2021/04/20 02:19:12;;;;;;;18.73;13.90;;;;;;;5.40;84.84;100701.41;5004792;28;20065;-75
2021/04/20 02:21:39;;;;;;;23.00;12.57;;;;;;;5.37;84.71;100704.84;5018117;28;20034;-76
2021/04/20 02:24:06;;;;;;;104.80;16.13;;;;;;;5.32;84.92;100703.88;5002200;28;20049;-76
2021/04/20 02:26:35;;;;;;;26.73;16.65;;;;;;;5.18;85.17;100710.56;5003879;28;20176;-76
2021/04/20 02:29:04;;;;;;;22.20;15.73;;;;;;;5.15;85.47;100716.63;5004368;28;20046;-76
2021/04/20 02:31:36;;;;;;;21.20;13.93;;;;;;;5.18;85.33;100708.84;5002801;28;20121;-75
2021/04/20 02:34:11;;;;;;;23.25;15.95;;;;;;;5.17;84.97;100714.94;5017041;28;20027;-75
2021/04/20 02:36:42;;;;;;;23.27;16.13;;;;;;;5.21;85.14;100714.16;5001156;28;20044;-76
2021/04/20 02:39:08;;;;;;;24.10;16.42;;;;;;;5.23;85.11;100711.53;5018864;28;20038;-75
2021/04/20 02:41:37;;;;;;;18.50;14.35;;;;;;;5.25;85.12;100712.47;5003604;28;20505;-76
2021/04/20 02:44:07;;;;;;;21.35;15.80;;;;;;;5.31;84.71;100706.44;5017264;28;20053;-76
2021/04/20 02:46:33;;;;;;;18.40;15.18;;;;;;;5.33;84.83;100704.75;5002020;28;20038;-76
2021/04/20 02:48:58;;;;;;;18.00;14.18;;;;;;;5.28;84.50;100705.53;5004044;28;20068;-76
2021/04/20 02:51:24;;;;;;;18.77;13.75;;;;;;;5.30;84.52;100702.09;5003151;28;20065;-75
2021/04/20 02:53:50;;;;;;;18.83;14.68;;;;;;;5.38;84.69;100700.47;5016594;28;20056;-76
2021/04/20 02:56:17;;;;;;;18.73;14.32;;;;;;;5.49;84.90;100704.16;5003208;28;20041;-76
2021/04/20 02:58:44;;;;;;;22.42;15.68;;;;;;;5.59;84.47;100706.09;5002806;28;20104;-74
2021/04/20 03:01:17;;;;;;;26.35;17.70;;;;;;;5.67;84.42;100708.84;5001709;28;20030;-76
2021/04/20 03:03:45;;;;;;;21.23;14.57;;;;;;;5.77;83.96;100712.50;5001248;28;20122;-76
2021/04/20 03:06:11;;;;;;;19.55;13.57;;;;;;;5.83;84.10;100715.19;5003014;28;20073;-76
2021/04/20 03:08:37;;;;;;;23.17;16.13;;;;;;;5.90;83.92;100706.59;5003069;28;20076;-75
2021/04/20 03:11:13;;;;;;;26.05;18.77;;;;;;;6.00;83.58;100712.88;5000423;28;20410;-75
2021/04/20 03:13:39;;;;;;;29.65;21.50;;;;;;;6.06;83.48;100708.63;5000202;28;20042;-76
2021/04/20 03:16:06;;;;;;;32.13;19.00;;;;;;;6.05;84.14;100711.19;5000976;28;20038;-76
2021/04/20 03:18:32;;;;;;;29.05;16.02;;;;;;;6.07;84.53;100705.13;5002628;28;20552;-76
2021/04/20 03:21:00;;;;;;;41.53;18.55;;;;;;;6.14;83.89;100719.22;5000277;28;20405;-76
2021/04/20 03:23:30;;;;;;;32.70;17.13;;;;;;;6.23;83.72;100715.84;5015651;28;20454;-76
2021/04/20 03:25:55;;;;;;;22.45;15.75;;;;;;;6.30;83.61;100715.06;5017680;28;20121;-76
2021/04/20 03:28:21;;;;;;;23.52;13.15;;;;;;;6.32;83.34;100708.13;5001236;28;20211;-75
2021/04/20 03:30:46;;;;;;;25.02;15.13;;;;;;;6.22;83.24;100706.22;5000127;28;20042;-76
2021/04/20 03:33:23;;;;;;;46.13;15.40;;;;;;;6.20;83.05;100706.19;5016742;28;20087;-75
2021/04/20 03:35:57;;;;;;;28.30;14.55;;;;;;;6.17;82.70;100705.28;5000782;28;20534;-76
2021/04/20 03:38:46;;;;;;;25.50;14.18;;;;;;;6.14;83.19;100706.97;5001272;28;20131;-76
2021/04/20 03:41:18;;;;;;;24.67;14.02;;;;;;;6.17;82.93;100710.50;5000886;28;20065;-76
2021/04/20 03:43:47;;;;;;;38.15;18.90;;;;;;;6.16;83.74;100709.63;5000784;28;20132;-76
2021/04/20 03:46:34;;;;;;;36.45;16.20;;;;;;;6.25;83.51;100709.75;5000107;28;20026;-76
2021/04/20 03:49:05;;;;;;;23.17;14.90;;;;;;;6.32;83.47;100711.63;5007252;28;20409;-74
2021/04/20 03:51:32;;;;;;;32.28;14.00;;;;;;;6.31;82.56;100708.97;5002706;28;20036;-75
2021/04/20 03:54:07;;;;;;;23.27;13.32;;;;;;;6.27;82.02;100707.16;5016314;28;20034;-75
2021/04/20 03:56:32;;;;;;;25.85;13.38;;;;;;;6.18;82.33;100704.41;5002270;28;20042;-75
2021/04/20 03:59:01;;;;;;;28.90;14.63;;;;;;;6.16;82.01;100701.78;5000171;28;20128;-75
2021/04/20 04:01:30;;;;;;;27.38;13.32;;;;;;;6.15;81.73;100707.84;5018431;28;20106;-75
2021/04/20 04:03:56;;;;;;;54.30;15.98;;;;;;;6.10;82.42;100702.56;5000473;28;20042;-75
2021/04/20 04:06:22;;;;;;;62.53;18.45;;;;;;;6.10;82.51;100705.19;5002041;28;20044;-75
2021/04/20 04:08:50;;;;;;;87.68;18.40;;;;;;;6.14;82.42;100708.72;4983518;28;508785;-75
2021/04/20 04:11:16;;;;;;;111.88;24.42;;;;;;;6.13;82.98;100701.72;5000466;28;20034;-75
2021/04/20 04:13:44;;;;;;;53.42;18.50;;;;;;;6.20;82.83;100707.94;5002256;28;20030;-75
2021/04/20 04:16:12;;;;;;;65.20;23.58;;;;;;;6.27;82.82;100707.16;5017790;28;20042;-75
2021/04/20 04:18:44;;;;;;;39.42;18.15;;;;;;;6.33;83.09;100702.00;5003146;28;20386;-76
2021/04/20 04:21:11;;;;;;;;;;;;;;;6.29;83.80;100710.69;5016662;28;20117;-75
2021/04/20 04:23:42;;;;;;;35.97;19.27;;;;;;;6.30;83.67;100709.81;5006041;28;20302;-76
2021/04/20 04:26:11;;;;;;;38.20;19.27;;;;;;;6.32;83.30;100711.63;5000629;28;20064;-76
2021/04/20 04:28:38;;;;;;;39.80;22.00;;;;;;;6.34;83.33;100714.22;5000807;28;20044;-76
2021/04/20 04:31:06;;;;;;;43.50;21.85;;;;;;;6.43;82.92;100709.13;5002845;28;20033;-75
2021/04/20 04:33:34;;;;;;;34.15;20.95;;;;;;;6.55;82.98;100717.19;5000506;28;20569;-75
2021/04/20 04:36:00;;;;;;;34.63;23.27;;;;;;;6.71;82.87;100714.75;5000643;28;20383;-76
2021/04/20 04:38:26;;;;;;;32.97;22.15;;;;;;;6.80;82.82;100720.97;5002765;28;20471;-77
2021/04/20 04:40:52;;;;;;;39.67;24.75;;;;;;;6.83;83.23;100709.63;5004391;28;20071;-77
2021/04/20 04:43:18;;;;;;;34.33;24.15;;;;;;;6.90;83.21;100713.22;5004000;28;20044;-76
2021/04/20 04:45:43;;;;;;;33.20;22.17;;;;;;;7.03;83.01;100730.88;5006194;28;20030;-79
2021/04/20 04:48:10;;;;;;;29.40;20.80;;;;;;;7.13;82.94;100724.88;5010847;28;20040;-76
2021/04/20 04:50:37;;;;;;;35.67;23.77;;;;;;;7.27;82.19;100726.75;5004004;28;20507;-76
2021/04/20 04:53:04;;;;;;;32.00;22.52;;;;;;;7.37;82.40;100723.34;5004731;28;20054;-76
2021/04/20 04:55:29;;;;;;;37.33;26.40;;;;;;;7.40;82.53;100726.88;5006775;28;20038;-76
2021/04/20 04:57:56;;;;;;;44.70;31.05;;;;;;;7.54;82.70;100727.00;5004883;28;20049;-76
2021/04/20 05:00:22;;;;;;;42.63;28.98;;;;;;;7.68;82.41;100722.78;5008961;28;20168;-76
2021/04/20 05:02:49;;;;;;;51.15;32.53;;;;;;;7.76;81.97;100729.84;5006439;28;20039;-76
2021/04/20 05:05:16;;;;;;;61.92;34.92;;;;;;;7.79;81.75;100722.00;5004219;28;20060;-76
2021/04/20 05:07:42;;;;;;;52.88;33.78;;;;;;;7.82;82.40;100724.63;5004644;28;20038;-76
2021/04/20 05:10:10;;;;;;;48.65;32.42;;;;;;;7.90;82.44;100722.94;5003873;28;20172;-76
2021/04/20 05:12:36;;;;;;;44.78;30.38;;;;;;;7.98;81.89;100721.25;5003233;28;20109;-76
2021/04/20 05:15:21;;;;;;;49.88;32.58;;;;;;;8.07;81.61;100720.47;5005021;28;20609;-76
2021/04/20 05:17:47;;;;;;;44.88;29.55;;;;;;;8.04;80.90;100726.56;5005839;28;20038;-76
2021/04/20 05:20:17;;;;;;;52.72;33.30;;;;;;;8.01;81.34;100721.28;5006065;28;20452;-76
2021/04/20 05:22:44;;;;;;;50.05;33.00;;;;;;;8.08;80.80;100725.72;5004089;28;20062;-76
2021/04/20 05:25:12;;;;;;;45.55;31.45;;;;;;;8.08;81.47;100733.59;5003360;28;20066;-76
2021/04/20 05:27:38;;;;;;;49.65;33.92;;;;;;;8.18;81.48;100734.56;5004951;28;20038;-76
2021/04/20 05:30:04;;;;;;;55.58;36.70;;;;;;;8.29;81.05;100740.75;5005255;28;20053;-76
2021/04/20 05:32:35;;;;;;;50.40;35.95;;;;;;;8.34;80.80;100732.91;5018716;28;20050;-76
2021/04/20 05:35:02;;;;;;;48.83;35.35;;;;;;;8.41;80.60;100739.09;5012885;28;20528;-76
2021/04/20 05:37:32;;;;;;;52.35;37.20;;;;;;;8.48;80.36;100730.38;5020814;28;20083;-76
2021/04/20 05:40:07;;;;;;;54.97;37.97;;;;;;;8.47;nan;100736.53;5005950;28;20050;-76
2021/04/20 05:42:32;;;;;;;51.90;37.83;;;;;;;8.51;80.64;100738.28;5020872;28;20089;-76
2021/04/20 05:44:58;;;;;;;54.15;37.38;;;;;;;8.56;80.25;100731.28;5007857;28;20037;-76
2021/04/20 05:47:24;;;;;;;56.63;39.55;;;;;;;8.61;80.17;100728.69;5003463;28;20092;-76
2021/04/20 05:50:11;;;;;;;56.10;39.92;;;;;;;8.73;80.02;100732.25;5018343;28;20030;-76
2021/04/20 05:52:37;;;;;;;54.00;38.83;;;;;;;8.95;79.50;100737.63;5017261;28;20042;-76
2021/04/20 05:55:05;;;;;;;68.70;47.42;;;;;;;9.05;79.28;100728.00;5004854;28;20052;-76
2021/04/20 05:57:30;;;;;;;59.50;42.72;;;;;;;9.10;79.08;100731.53;5005130;28;20599;-76
2021/04/20 05:59:58;;;;;;;57.65;40.40;;;;;;;9.23;78.68;100721.91;5020156;28;20034;-76
2021/04/20 06:02:26;;;;;;;58.03;42.40;;;;;;;9.47;78.12;100734.25;5005993;28;20130;-76
2021/04/20 06:04:54;;;;;;;67.38;44.97;;;;;;;9.58;77.79;100733.38;5002660;28;20034;-76
2021/04/20 06:07:20;;;;;;;56.13;37.15;;;;;;;9.58;77.29;100729.88;5003828;28;20397;-76
2021/04/20 06:09:46;;;;;;;70.60;50.97;;;;;;;9.49;78.04;100733.38;5004853;28;20045;-76
2021/04/20 06:12:13;;;;;;;52.10;39.80;;;;;;;9.58;77.70;100740.41;5002906;28;20088;-76
2021/04/20 06:14:39;;;;;;;49.20;37.75;;;;;;;9.62;77.45;100735.16;5017872;28;20039;-76
2021/04/20 06:17:11;;;;;;;49.03;36.13;;;;;;;9.71;77.16;100730.75;5004818;28;20034;-76
2021/04/20 06:19:36;;;;;;;48.03;37.87;;;;;;;9.77;76.76;100736.03;5006566;28;20038;-76
2021/04/20 06:22:02;;;;;;;49.20;38.00;;;;;;;9.73;76.75;100736.91;5001926;28;20038;-76
2021/04/20 06:24:30;;;;;;;53.17;38.90;;;;;;;9.59;77.52;100731.66;5002017;28;20042;-76
2021/04/20 06:26:57;;;;;;;49.95;37.78;;;;;;;9.58;77.46;100725.47;5004575;28;20026;-76
2021/04/20 06:29:22;;;;;;;49.47;37.15;;;;;;;9.63;77.59;100734.25;5003286;28;20482;-76
2021/04/20 06:31:49;;;;;;;60.35;43.67;;;;;;;9.68;78.04;100736.03;5001762;28;20089;-76
2021/04/20 06:34:15;;;;;;;51.15;38.50;;;;;;;9.73;77.21;100736.91;5004139;28;20124;-76
2021/04/20 06:36:41;;;;;;;52.28;41.33;;;;;;;9.75;77.52;100735.16;5018847;28;20193;-76
2021/04/20 06:39:07;;;;;;;54.33;39.45;;;;;;;9.80;77.43;100736.06;5001971;28;20450;-76
2021/04/20 06:41:34;;;;;;;47.40;36.83;;;;;;;9.83;77.07;100731.66;5018052;28;20037;-75
2021/04/20 06:44:05;;;;;;;52.65;39.33;;;;;;;9.87;77.29;100735.16;5004211;28;20030;-76
2021/04/20 06:46:59;;;;;;;62.80;44.80;;;;;;;9.80;78.99;100736.06;5003239;28;20525;-76
2021/04/20 06:49:30;;;;;;;77.95;51.70;;;;;;;9.96;77.58;100732.53;5004108;28;20084;-76
2021/04/20 06:52:06;;;;;;;54.25;41.35;;;;;;;10.13;77.45;100734.25;5001666;28;20121;-76
2021/04/20 06:54:43;;;;;;;53.42;41.88;;;;;;;10.13;77.14;100739.53;5002296;28;20073;-76
2021/04/20 06:57:13;;;;;;;54.13;40.17;;;;;;;10.28;76.50;100744.84;5000490;28;20113;-76
2021/04/20 07:00:02;;;;;;;58.30;42.50;;;;;;;10.32;76.30;100743.94;5002045;28;20038;-76
2021/04/20 07:02:46;;;;;;;52.58;38.67;;;;;;;10.42;75.83;100743.03;5000463;28;20066;-76
2021/04/20 07:05:15;;;;;;;49.10;38.95;;;;;;;10.61;75.60;100737.69;5001629;28;20042;-76
2021/04/20 07:08:05;;;;;;;50.95;39.67;;;;;;;10.87;74.94;100741.16;5002567;28;20038;-76
2021/04/20 07:10:34;;;;;;;52.25;39.33;;;;;;;10.98;74.00;100733.19;5000194;28;20049;-75
2021/04/20 07:13:07;;;;;;;51.75;39.00;;;;;;;10.96;73.99;100733.19;5002911;28;20030;-76
2021/04/20 07:15:34;;;;;;;49.20;39.65;;;;;;;10.99;74.28;100740.22;5003753;28;20099;-76
2021/04/20 07:18:05;;;;;;;49.53;38.45;;;;;;;11.11;74.18;100737.53;5002302;28;20034;-76
2021/04/20 07:20:50;;;;;;;48.63;40.33;;;;;;;11.40;72.82;100737.34;5001088;28;20134;-76
2021/04/20 07:23:53;;;;;;;52.47;38.88;;;;;;;11.66;71.58;100733.66;5000983;28;20418;-76
2021/04/20 07:26:34;;;;;;;68.90;50.10;;;;;;;11.88;72.29;100730.88;5003583;28;20040;-76
2021/04/20 07:29:21;;;;;;;53.30;41.55;;;;;;;11.94;70.93;100729.03;5018718;28;20033;-76
2021/04/20 07:32:11;;;;;;;50.90;40.67;;;;;;;11.82;70.36;100724.72;5003137;28;20539;-76
2021/04/20 07:35:05;;;;;;;49.53;38.95;;;;;;;11.80;69.81;100726.47;5003055;28;20037;-76
2021/04/20 07:37:40;;;;;;;51.53;40.80;;;;;;;11.97;69.34;100723.75;5001497;28;20046;-76
2021/04/20 07:40:27;;;;;;;50.67;39.63;;;;;;;12.12;69.12;100733.28;5000990;28;20056;-76
2021/04/20 07:43:02;;;;;;;51.10;39.53;;;;;;;12.36;68.69;100728.66;5001113;28;20030;-76
2021/04/20 07:45:39;;;;;;;53.45;42.03;;;;;;;12.38;68.21;100734.81;5002391;28;20036;-76
2021/04/20 07:48:15;;;;;;;47.75;39.00;;;;;;;12.66;68.28;100725.69;5003431;28;20037;-76
2021/04/20 07:50:46;;;;;;;49.85;38.38;;;;;;;12.89;66.42;100722.75;5018400;28;20080;-76
2021/04/20 07:53:40;;;;;;;49.05;38.47;;;;;;;12.94;66.29;100718.28;5001485;28;20037;-76
2021/04/20 07:56:19;;;;;;;49.30;37.75;;;;;;;13.07;66.11;100708.41;5003023;28;20065;-76
2021/04/20 07:58:49;;;;;;;50.17;39.13;;;;;;;12.98;66.38;100708.50;5000848;28;20038;-76
2021/04/20 08:01:52;;;;;;;49.72;37.97;;;;;;;12.90;65.91;100720.97;5020183;28;20038;-76
2021/04/20 08:04:38;;;;;;;50.75;39.78;;;;;;;12.92;66.81;100713.91;5000255;28;20049;-76
2021/04/20 08:07:09;;;;;;;50.58;40.70;;;;;;;12.92;66.81;100711.25;5001562;28;20034;-76
2021/04/20 08:09:37;;;;;;;49.85;39.70;;;;;;;13.01;65.88;100721.72;5000592;28;20046;-76
2021/04/20 08:12:13;;;;;;;50.70;40.90;;;;;;;12.89;66.54;100713.91;5000486;28;20041;-76
2021/04/20 08:15:01;;;;;;;48.75;40.95;;;;;;;12.88;65.92;100712.16;5019808;28;20045;-76
2021/04/20 08:17:34;;;;;;;51.78;40.85;;;;;;;12.85;67.08;100725.47;5001899;28;20102;-76
2021/04/20 08:20:18;;;;;;;50.50;41.40;;;;;;;12.85;67.09;100720.16;5002853;28;20525;-76
2021/04/20 08:22:45;;;;;;;51.20;42.33;;;;;;;12.98;66.63;100713.81;5002486;28;20375;-76
2021/04/20 08:25:21;;;;;;;51.38;40.75;;;;;;;13.29;65.67;100711.66;5016933;28;20123;-76
2021/04/20 08:27:57;;;;;;;50.17;39.47;;;;;;;13.40;64.62;100719.44;5001552;28;20038;-76
2021/04/20 08:30:26;;;;;;;45.60;38.35;;;;;;;13.43;64.98;100706.13;5000626;28;20062;-75
2021/04/20 08:32:52;;;;;;;59.38;44.58;;;;;;;13.55;64.31;100708.59;5016235;28;20401;-76
2021/04/20 08:35:21;;;;;;;92.65;76.55;;;;;;;13.71;63.96;100703.06;5018190;28;20048;-76
2021/04/20 08:37:54;;;;;;;46.03;38.80;;;;;;;13.74;64.29;100703.88;5002084;28;20069;-76
2021/04/20 08:40:43;;;;;;;50.60;39.17;;;;;;;13.63;63.79;100700.53;5000507;28;20088;-76
2021/04/20 08:43:33;;;;;;;50.00;40.78;;;;;;;13.61;63.96;100709.41;5001279;28;20034;-76
2021/04/20 08:46:15;;;;;;;44.92;36.70;;;;;;;13.62;64.09;100709.38;5017448;28;20044;-76
2021/04/20 08:48:53;;;;;;;47.95;37.50;;;;;;;13.74;63.93;100703.88;5002158;28;20124;-76
2021/04/20 08:51:35;;;;;;;47.38;39.22;;;;;;;13.80;62.65;100706.41;5001284;28;20041;-76
2021/04/20 08:54:26;;;;;;;47.05;37.63;;;;;;;13.87;63.05;100704.56;5009373;28;20104;-76
2021/04/20 08:57:10;;;;;;;46.45;37.25;;;;;;;13.95;63.28;100709.72;5021962;28;20498;-76
2021/04/20 08:59:44;;;;;;;47.40;41.10;;;;;;;14.06;62.66;100709.53;5003052;28;20041;-76
2021/04/20 09:02:34;;;;;;;49.05;39.25;;;;;;;14.16;62.03;100703.16;5001457;28;20042;-76
2021/04/20 09:05:33;;;;;;;44.92;35.47;;;;;;;14.12;62.08;100699.72;5002380;28;20073;-76
2021/04/20 09:08:13;;;;;;;43.55;36.58;;;;;;;14.27;61.60;100695.88;5000006;28;20410;-76
2021/04/20 09:10:54;;;;;;;41.13;33.58;;;;;;;14.36;61.52;100695.72;5001430;28;20060;-76
2021/04/20 09:13:22;;;;;;;45.92;37.60;;;;;;;14.44;60.95;100693.78;5001228;28;20088;-76
2021/04/20 09:15:50;;;;;;;43.35;36.38;;;;;;;14.52;61.06;100698.06;5001143;28;20045;-76
2021/04/20 09:18:20;;;;;;;44.45;36.60;;;;;;;14.34;61.37;100692.22;5001089;28;20042;-77
2021/04/20 09:20:58;;;;;;;39.47;34.53;;;;;;;14.15;61.27;100694.34;4999963;28;20418;-75
2021/04/20 09:23:46;;;;;;;44.42;36.55;;;;;;;14.26;61.70;100702.09;4999756;28;20073;-77
2021/04/20 09:26:36;;;;;;;46.20;36.55;;;;;;;14.48;60.82;100698.09;5002556;28;20035;-76
2021/04/20 09:29:25;;;;;;;50.33;40.40;;;;;;;14.12;63.61;100696.16;5004195;28;20051;-76
2021/04/20 09:32:04;;;;;;;47.75;37.58;;;;;;;14.37;61.50;100689.47;5019654;28;20577;-76
2021/04/20 09:34:36;;;;;;;41.70;34.33;;;;;;;14.52;61.33;100687.44;5004336;28;20049;-76
2021/04/20 09:37:03;;;;;;;42.47;35.20;;;;;;;14.65;61.01;100689.00;5003381;28;20035;-76
2021/04/20 09:39:34;;;;;;;36.75;32.13;;;;;;;14.68;60.48;100692.44;5004389;28;20034;-76
2021/04/20 09:42:03;;;;;;;41.97;34.80;;;;;;;14.74;60.36;100694.09;5020320;28;20042;-76
2021/04/20 09:44:41;;;;;;;41.10;34.33;;;;;;;14.87;59.68;100684.09;5003598;28;20030;-76
2021/04/20 09:47:28;;;;;;;41.42;33.13;;;;;;;14.61;60.83;100687.28;5004554;28;20047;-76
2021/04/20 09:50:15;;;;;;;39.72;32.25;;;;;;;14.21;61.24;100685.38;5004915;28;20065;-76
2021/04/20 09:53:17;;;;;;;41.85;33.17;;;;;;;14.00;62.25;100687.50;5004984;28;20030;-76
2021/04/20 09:55:47;;;;;;;36.22;30.98;;;;;;;13.92;62.05;100692.09;5004022;28;20038;-76
2021/04/20 09:58:15;;;;;;;37.33;29.10;;;;;;;13.98;61.50;100688.44;5005074;28;20041;-76
2021/04/20 10:00:41;;;;;;;42.75;33.05;;;;;;;14.13;61.89;100692.63;5010277;28;20033;-77
2021/04/20 10:03:16;;;;;;;37.58;32.70;;;;;;;14.22;61.57;100685.34;5018038;28;20038;-77
2021/04/20 10:06:12;;;;;;;45.42;35.92;;;;;;;14.36;62.21;100687.75;5025723;28;20525;-77
2021/04/20 10:09:01;;;;;;;41.97;34.83;;;;;;;14.46;61.96;100680.47;5019528;28;20401;-76
2021/04/20 10:12:05;;;;;;;42.35;35.08;;;;;;;14.59;61.80;100684.69;5020239;28;20057;-78
2021/04/20 10:15:00;;;;;;;38.67;32.90;;;;;;;14.77;61.30;100672.78;5003076;28;20041;-76
2021/04/20 10:17:29;;;;;;;38.17;32.17;;;;;;;14.93;60.55;100675.09;5021937;28;20378;-77
2021/04/20 10:20:01;;;;;;;41.42;33.78;;;;;;;15.16;59.30;100679.91;5008851;28;20042;-77
2021/04/20 10:22:40;;;;;;;39.15;33.20;;;;;;;15.07;60.98;100678.34;5010688;28;20034;-77
2021/04/20 10:25:33;;;;;;;37.08;32.28;;;;;;;15.21;60.49;100676.25;5008894;28;20394;-77
2021/04/20 10:28:18;;;;;;;;;;;;;;;15.54;60.13;100677.25;5007406;28;20482;-77
2021/04/20 10:30:47;;;;;;;38.03;33.13;;;;;;;15.69;58.29;100660.06;5006114;28;19913;-77
2021/04/20 10:33:18;;;;;;;39.28;34.00;;;;;;;15.76;58.83;100671.41;5022971;28;20037;-77
2021/04/20 10:35:45;;;;;;;35.53;31.05;;;;;;;16.05;57.90;100662.66;5004406;28;20041;-77
2021/04/20 10:38:16;;;;;;;39.38;32.50;;;;;;;16.28;57.93;100656.72;5004679;28;20041;-77
2021/04/20 10:40:45;;;;;;;34.95;30.40;;;;;;;16.60;55.48;100653.13;5007151;28;20034;-77
2021/04/20 10:43:16;;;;;;;35.00;28.98;;;;;;;16.91;55.45;100656.72;5008571;28;20042;-78
2021/04/20 10:45:42;;;;;;;34.20;28.80;;;;;;;17.09;54.85;100651.69;5024738;28;20125;-77
2021/04/20 10:48:10;;;;;;;38.05;32.20;;;;;;;17.29;54.13;100644.84;5024864;28;20290;-78
2021/04/20 10:50:39;;;;;;;34.95;30.65;;;;;;;16.79;55.12;100648.19;5030513;28;20030;-79
2021/04/20 10:53:13;;;;;;;37.28;29.80;;;;;;;17.00;54.84;100637.78;5012105;28;20042;-79
2021/04/20 10:55:41;;;;;;;38.13;31.30;;;;;;;16.96;54.35;100642.34;5027879;28;20482;-77
2021/04/20 10:58:08;;;;;;;37.15;29.90;;;;;;;16.86;54.89;100639.06;5010476;28;20096;-78
2021/04/20 11:00:34;;;;;;;31.58;28.17;;;;;;;16.49;55.75;100639.25;5006917;28;20030;-77
2021/04/20 11:03:01;;;;;;;33.17;28.75;;;;;;;16.72;55.30;100638.59;5004511;28;20029;-77
2021/04/20 11:05:28;;;;;;;34.53;29.10;;;;;;;16.68;56.06;100634.25;5007094;28;20038;-77
2021/04/20 11:07:55;;;;;;;34.65;29.38;;;;;;;16.56;55.61;100630.19;5022400;28;20133;-77
2021/04/20 11:10:26;;;;;;;33.28;28.42;;;;;;;16.63;55.48;100629.06;5004022;28;20502;-77
2021/04/20 11:12:52;;;;;;;32.72;27.58;;;;;;;16.62;54.95;100630.00;5006827;28;20030;-77
2021/04/20 11:15:26;;;;;;;33.88;27.80;;;;;;;16.55;55.32;100624.88;5007335;28;20510;-77
2021/04/20 11:17:54;;;;;;;34.53;27.98;;;;;;;16.48;55.24;100632.19;5006755;28;20029;-77
2021/04/20 11:20:29;;;;;;;31.98;26.42;;;;;;;16.24;56.11;100624.88;5005425;28;20117;-77
2021/04/20 11:23:17;;;;;;;27.80;24.75;;;;;;;16.44;54.29;100618.06;5003614;28;20042;-77
2021/04/20 11:25:53;;;;;;;30.20;25.15;;;;;;;16.48;54.77;100613.56;5003231;28;20050;-77
2021/04/20 11:28:36;;;;;;;30.92;25.63;;;;;;;16.62;54.54;100611.34;5003905;28;20045;-77
2021/04/20 11:31:04;;;;;;;26.80;23.88;;;;;;;16.81;54.15;100608.16;5019135;28;20052;-77
2021/04/20 11:33:53;;;;;;;27.90;24.52;;;;;;;17.15;52.98;100609.75;5003500;28;20073;-76
2021/04/20 11:36:26;;;;;;;24.70;20.65;;;;;;;17.48;51.02;100605.13;5022163;28;20121;-77